Terminal Aerodrome Forecast
Issued by NWS

Home | Current Version | Previous Version | Text Only | Print | Product List | Glossary On
Versions: 1 2 3 4 5 6 7 8 9 10 11 12 13 14 15 16 17 18 19 20 21 22 23 24 25 26 27 28 29 30 31 32 33 34
000
FTUS44 KLIX 242327
TAFHUM
TAF
KHUM 242327Z 2500/2524 18012KT P6SM SCT025 BKN090
     FM250600 18009KT P6SM VCSH BKN020 BKN060
     FM250800 19007KT P6SM VCSH BKN020 BKN025
     FM251100 19004KT P6SM BKN010 BKN015 PROB30 2511/2516 4SM SHRA
      OVC006
     FM251600 20007KT P6SM SCT015 BKN035 PROB30 2516/2519 4SM SHRA
      BKN015
     FM251900 20009KT P6SM SCT015 BKN030 PROB30 2519/2524 4SM SHRA
      BKN015=

USA.gov is the U.S. government's official web portal to all federal, state and local government web resources and services.